Time;durP1;ratioP1;P1;durP2;ratioP2;P2;SDS_P1;SDS_P2;PMS_P1;PMS_P2;Temp;Humidity;BMP_temperature;BMP_pressure;BME280_temperature;BME280_humidity;BME280_pressure;Samples;Min_cycle;Max_cycle;Signal;HPM_P1;HPM_P2
2023/06/16 00:01:05;;;;;;;5.32;3.45;;;;;;;23.37;42.47;101817.94;4968163;28;1496388;-51
2023/06/16 00:03:34;;;;;;;3.40;3.10;;;;;;;23.37;41.94;101817.09;5021345;28;20122;-49
2023/06/16 00:06:12;;;;;;;4.70;3.17;;;;;;;23.35;42.08;101819.13;5020158;28;20419;-51
2023/06/16 00:08:48;;;;;;;5.82;3.35;;;;;;;23.34;42.34;101811.97;5007068;28;20034;-51
2023/06/16 00:11:15;;;;;;;8.70;3.85;;;;;;;23.33;42.65;101808.41;5021569;28;20037;-49
2023/06/16 00:13:41;;;;;;;3.38;3.08;;;;;;;23.32;42.33;101809.44;5018194;28;20043;-48
2023/06/16 00:16:06;;;;;;;5.00;3.58;;;;;;;23.32;42.18;101806.72;5019433;28;20033;-48
2023/06/16 00:18:32;;;;;;;5.80;3.53;;;;;;;23.32;42.66;101806.72;5019367;28;20304;-49
2023/06/16 00:21:00;;;;;;;4.40;3.25;;;;;;;23.29;42.14;101804.31;5022937;28;20533;-50
2023/06/16 00:23:26;;;;;;;4.60;3.25;;;;;;;23.29;42.67;101815.19;5021579;28;20080;-50
2023/06/16 00:25:52;;;;;;;3.95;3.60;;;;;;;23.28;42.43;101810.75;5021121;28;20029;-50
2023/06/16 00:28:17;;;;;;;6.15;3.45;;;;;;;23.27;42.22;101810.94;5020285;28;20036;-50
2023/06/16 00:30:44;;;;;;;5.80;3.42;;;;;;;23.27;42.44;101810.94;5022375;28;20037;-49
2023/06/16 00:33:10;;;;;;;4.45;4.00;;;;;;;23.25;42.45;101807.47;5020664;28;20112;-51
2023/06/16 00:35:35;;;;;;;4.30;3.30;;;;;;;23.23;42.40;101805.78;5020318;28;20629;-51
2023/06/16 00:38:01;;;;;;;3.90;3.50;;;;;;;23.22;42.41;101800.50;5019224;28;20038;-50
2023/06/16 00:40:26;;;;;;;5.05;3.33;;;;;;;23.21;42.64;101801.53;5020708;28;20511;-49
2023/06/16 00:42:53;;;;;;;4.00;3.58;;;;;;;23.20;42.35;101805.25;5020488;28;20038;-50
2023/06/16 00:45:19;;;;;;;4.47;2.95;;;;;;;23.18;42.44;101802.69;5020806;28;20030;-49
2023/06/16 00:47:44;;;;;;;5.47;3.80;;;;;;;23.18;42.07;101801.84;5020657;28;20574;-50
2023/06/16 00:50:10;;;;;;;6.20;3.15;;;;;;;23.17;42.00;101801.00;5020884;28;20040;-49
2023/06/16 00:52:37;;;;;;;4.95;3.63;;;;;;;23.15;42.27;101803.03;5020843;28;20034;-50
2023/06/16 00:55:02;;;;;;;7.65;3.42;;;;;;;23.14;42.28;101801.31;5021321;28;20415;-49
2023/06/16 00:57:29;;;;;;;4.30;3.58;;;;;;;23.12;42.25;101799.75;5020553;28;20028;-50
2023/06/16 00:59:55;;;;;;;5.03;3.80;;;;;;;23.12;42.40;101799.75;5019324;28;20037;-50
2023/06/16 01:02:20;;;;;;;3.88;3.50;;;;;;;23.12;42.29;101797.03;5019379;28;20566;-50
2023/06/16 01:04:48;;;;;;;4.25;3.47;;;;;;;23.09;42.01;101797.34;5020343;28;20121;-48
2023/06/16 01:07:29;;;;;;;3.67;3.33;;;;;;;23.08;42.30;101791.06;5021745;28;20022;-51
2023/06/16 01:10:05;;;;;;;4.97;3.67;;;;;;;23.08;42.01;101788.34;5019474;28;20025;-49
2023/06/16 01:12:33;;;;;;;5.55;4.00;;;;;;;23.05;42.00;101785.09;5019519;28;20542;-50
2023/06/16 01:15:11;;;;;;;4.75;3.78;;;;;;;23.05;42.28;101785.09;5020924;28;20511;-49
2023/06/16 01:17:46;;;;;;;4.28;3.38;;;;;;;23.03;42.28;101787.97;5019577;28;20026;-50
2023/06/16 01:20:24;;;;;;;4.05;3.40;;;;;;;23.02;42.13;101781.66;5020969;28;20033;-51
2023/06/16 01:22:50;;;;;;;6.07;3.50;;;;;;;23.01;42.21;101779.94;5019736;28;20498;-49
2023/06/16 01:25:17;;;;;;;5.68;3.72;;;;;;;23.00;41.81;101777.41;5020484;28;20038;-47
2023/06/16 01:27:47;;;;;;;4.97;3.58;;;;;;;22.98;41.97;101782.97;5019012;28;20500;-51
2023/06/16 01:30:15;;;;;;;4.38;3.75;;;;;;;22.96;42.37;101787.72;5020779;28;20037;-50
2023/06/16 01:32:43;;;;;;;5.18;4.10;;;;;;;22.95;41.84;101790.59;5020924;28;20037;-49
2023/06/16 01:35:11;;;;;;;7.25;3.53;;;;;;;22.94;41.81;101789.75;5020375;28;20378;-50
2023/06/16 01:37:38;;;;;;;6.85;3.60;;;;;;;22.94;42.21;101791.59;5018812;28;20029;-51
2023/06/16 01:40:05;;;;;;;4.13;3.58;;;;;;;22.91;42.04;101781.06;5019484;28;20030;-48
2023/06/16 01:42:31;;;;;;;5.07;3.70;;;;;;;22.92;42.21;101786.31;5020736;28;20087;-50
2023/06/16 01:44:57;;;;;;;5.00;4.20;;;;;;;22.90;42.12;101782.88;5019252;28;20048;-49
2023/06/16 01:47:24;;;;;;;4.53;3.50;;;;;;;22.89;42.01;101774.91;5019425;28;20037;-50
2023/06/16 01:49:50;;;;;;;5.75;3.67;;;;;;;22.88;41.83;101779.47;5020897;28;20369;-50
2023/06/16 01:52:16;;;;;;;5.88;3.90;;;;;;;22.87;41.58;101776.94;5021345;28;20049;-50
2023/06/16 01:54:41;;;;;;;5.07;3.58;;;;;;;22.86;41.43;101776.06;5019799;28;20041;-50
2023/06/16 01:57:07;;;;;;;5.85;3.88;;;;;;;22.87;41.85;101769.63;5021554;28;20159;-50
2023/06/16 01:59:33;;;;;;;7.18;3.97;;;;;;;22.84;41.68;101778.94;5019718;28;20455;-50
2023/06/16 02:02:05;;;;;;;5.78;3.53;;;;;;;22.84;42.04;101762.63;5019656;28;20121;-49
2023/06/16 02:04:32;;;;;;;6.82;3.80;;;;;;;22.83;41.83;101785.38;5018420;28;20062;-50
2023/06/16 02:07:07;;;;;;;8.63;4.38;;;;;;;22.82;41.70;101778.25;5020279;28;20072;-50
2023/06/16 02:09:35;;;;;;;5.10;4.00;;;;;;;22.81;41.50;101790.13;5019825;28;20060;-50
2023/06/16 02:12:01;;;;;;;6.18;3.97;;;;;;;22.79;41.76;101785.84;5019646;28;20141;-50
2023/06/16 02:14:28;;;;;;;5.10;3.83;;;;;;;22.77;41.31;101790.56;5019164;28;20545;-48
2023/06/16 02:16:53;;;;;;;4.75;4.22;;;;;;;22.77;41.44;101787.84;5019721;28;20065;-51
2023/06/16 02:19:19;;;;;;;5.05;4.00;;;;;;;22.75;41.30;101789.88;5019917;28;20060;-50
2023/06/16 02:21:45;;;;;;;7.82;4.10;;;;;;;22.72;41.53;101785.63;5019076;28;20038;-50
2023/06/16 02:24:10;;;;;;;11.68;4.05;;;;;;;22.71;41.32;101781.19;5020386;28;20115;-50
2023/06/16 02:26:39;;;;;;;7.22;4.13;;;;;;;22.71;41.45;101788.47;5017622;28;20065;-50
2023/06/16 02:29:04;;;;;;;5.07;4.15;;;;;;;22.69;41.64;101785.06;5020520;28;20116;-50
2023/06/16 02:31:30;;;;;;;5.28;3.83;;;;;;;22.68;41.25;101784.22;5018308;28;20140;-50
2023/06/16 02:33:56;;;;;;;5.10;3.97;;;;;;;22.68;41.25;101788.81;5019048;28;20037;-49
2023/06/16 02:36:23;;;;;;;6.95;4.35;;;;;;;22.67;41.47;101792.53;5019023;28;20041;-50
2023/06/16 02:38:49;;;;;;;6.95;4.25;;;;;;;22.65;41.35;101789.97;5019133;28;20141;-48
2023/06/16 02:41:15;;;;;;;6.95;4.63;;;;;;;22.64;41.19;101793.69;5023583;28;20040;-48
2023/06/16 02:43:40;;;;;;;5.60;3.80;;;;;;;22.63;41.57;101787.38;5023401;28;20037;-50
2023/06/16 02:46:06;;;;;;;6.07;4.07;;;;;;;22.61;41.63;101783.97;5023441;28;20029;-50
2023/06/16 02:48:32;;;;;;;6.65;3.83;;;;;;;22.60;41.80;101787.72;5022168;28;20029;-50
2023/06/16 02:50:57;;;;;;;6.95;4.15;;;;;;;22.59;41.15;101785.16;5022106;28;20029;-50
2023/06/16 02:53:24;;;;;;;6.35;4.38;;;;;;;22.58;41.35;101784.31;5022427;28;20042;-50
2023/06/16 02:55:51;;;;;;;6.75;4.03;;;;;;;22.56;41.77;101786.31;5020598;28;20084;-51
2023/06/16 02:58:17;;;;;;;4.85;3.75;;;;;;;22.56;41.32;101780.91;5022934;28;20030;-50
2023/06/16 03:00:43;;;;;;;6.80;3.63;;;;;;;22.54;41.54;101780.19;5022117;28;20033;-50
2023/06/16 03:03:09;;;;;;;5.75;3.80;;;;;;;22.54;41.53;101788.34;5023115;28;20619;-48
2023/06/16 03:05:34;;;;;;;8.43;4.07;;;;;;;22.53;41.47;101786.63;5022332;28;20045;-50
2023/06/16 03:08:00;;;;;;;5.28;3.90;;;;;;;22.51;41.37;101787.78;5022642;28;20029;-49
2023/06/16 03:10:25;;;;;;;6.28;4.13;;;;;;;22.49;41.38;101790.66;5022292;28;20478;-50
2023/06/16 03:12:51;;;;;;;5.13;3.95;;;;;;;22.47;41.02;101787.25;5022221;28;20033;-50
2023/06/16 03:15:16;;;;;;;7.50;4.20;;;;;;;22.45;41.05;101791.97;5021697;28;20033;-49
2023/06/16 03:17:43;;;;;;;6.00;4.13;;;;;;;22.44;41.29;101795.69;5021303;28;20030;-50
2023/06/16 03:20:09;;;;;;;4.93;4.13;;;;;;;22.43;41.27;101780.41;5023195;28;20508;-49
2023/06/16 03:22:35;;;;;;;6.15;4.15;;;;;;;22.43;40.94;101786.69;5023184;28;20038;-50
2023/06/16 03:25:02;;;;;;;6.63;4.05;;;;;;;22.42;40.87;101789.56;5021923;28;20079;-49
2023/06/16 03:27:28;;;;;;;5.53;3.72;;;;;;;22.42;40.89;101794.97;5021566;28;20041;-50
2023/06/16 03:29:53;;;;;;;5.10;4.10;;;;;;;22.40;40.86;101788.84;5021815;28;20037;-50
2023/06/16 03:32:18;;;;;;;7.10;3.67;;;;;;;22.40;40.89;101783.44;5022381;28;20482;-49
2023/06/16 03:34:44;;;;;;;7.03;4.28;;;;;;;22.39;41.14;101789.84;5021763;28;20034;-49
2023/06/16 03:37:09;;;;;;;5.05;3.97;;;;;;;22.38;40.79;101788.16;5020507;28;20026;-50
2023/06/16 03:39:35;;;;;;;7.50;3.97;;;;;;;22.36;40.87;101795.59;5021739;28;20393;-49
2023/06/16 03:42:00;;;;;;;6.45;3.92;;;;;;;22.34;40.84;101790.31;5020768;28;20128;-50
2023/06/16 03:44:25;;;;;;;4.38;3.97;;;;;;;22.33;41.17;101790.47;5022043;28;20037;-51
2023/06/16 03:46:51;;;;;;;4.63;4.13;;;;;;;22.31;41.29;101792.47;5022787;28;20127;-51
2023/06/16 03:49:16;;;;;;;5.07;3.80;;;;;;;22.29;41.16;101795.34;5023228;28;20104;-49
2023/06/16 03:51:42;;;;;;;5.03;3.80;;;;;;;22.30;41.30;101798.91;5019832;28;20509;-49
2023/06/16 03:54:07;;;;;;;5.05;4.07;;;;;;;22.26;41.44;101801.09;5021072;28;20037;-50
2023/06/16 03:56:33;;;;;;;5.65;4.20;;;;;;;22.24;41.09;101805.78;5021362;28;20049;-49
2023/06/16 03:58:58;;;;;;;5.57;4.60;;;;;;;22.24;41.23;101797.63;5021622;28;20491;-49
2023/06/16 04:01:24;;;;;;;7.85;4.60;;;;;;;22.22;41.13;101797.78;5021075;28;20080;-49
2023/06/16 04:03:50;;;;;;;5.75;4.88;;;;;;;22.21;41.57;101801.47;5022314;28;20056;-49
2023/06/16 04:06:16;;;;;;;7.55;4.68;;;;;;;22.19;41.34;101799.94;5022011;28;20029;-49
2023/06/16 04:08:41;;;;;;;7.10;4.25;;;;;;;22.18;41.24;101804.53;5021287;28;20090;-50
2023/06/16 04:11:07;;;;;;;5.95;3.88;;;;;;;22.18;41.18;101799.09;5020581;28;20060;-51
2023/06/16 04:13:32;;;;;;;6.93;4.82;;;;;;;22.15;41.35;101799.38;5019359;28;20060;-49
2023/06/16 04:15:58;;;;;;;8.45;4.43;;;;;;;22.16;41.49;101806.53;5021087;28;20037;-50
2023/06/16 04:18:23;;;;;;;8.95;4.57;;;;;;;22.15;41.82;101815.66;5021572;28;20101;-50
2023/06/16 04:20:49;;;;;;;7.25;4.55;;;;;;;22.14;41.86;101811.25;5020951;28;20034;-49
2023/06/16 04:23:14;;;;;;;8.20;4.80;;;;;;;22.14;41.45;101816.69;5027006;28;20468;-51
2023/06/16 04:25:40;;;;;;;7.15;4.68;;;;;;;22.13;41.84;101817.66;5022100;28;20044;-51
2023/06/16 04:28:07;;;;;;;7.60;4.45;;;;;;;22.11;41.62;101813.41;5021208;28;20037;-50
2023/06/16 04:30:33;;;;;;;6.93;4.25;;;;;;;22.10;41.60;101812.53;5021207;28;20378;-50
2023/06/16 04:33:01;;;;;;;9.25;4.65;;;;;;;22.08;42.19;101813.69;5020866;28;20037;-51
2023/06/16 04:35:31;;;;;;;4.97;4.20;;;;;;;22.09;42.12;101810.84;5020970;28;20131;-50
2023/06/16 04:38:00;;;;;;;7.43;4.53;;;;;;;22.08;41.93;101813.69;5019877;28;20120;-50
2023/06/16 04:40:29;;;;;;;4.43;3.63;;;;;;;22.05;41.80;101815.72;5021219;28;20030;-50
2023/06/16 04:42:55;;;;;;;8.18;4.65;;;;;;;22.03;42.30;101812.28;5021800;28;20071;-49
2023/06/16 04:45:22;;;;;;;10.13;4.30;;;;;;;22.02;42.33;101816.00;5021757;28;20490;-50
2023/06/16 04:47:50;;;;;;;8.18;4.65;;;;;;;22.03;41.75;101820.44;5019688;28;20046;-48
2023/06/16 04:50:16;;;;;;;7.60;4.70;;;;;;;22.02;42.12;101820.56;5019885;28;20025;-50
2023/06/16 04:52:42;;;;;;;8.68;4.72;;;;;;;22.02;41.82;101820.56;5021118;28;20049;-49
2023/06/16 04:55:08;;;;;;;7.25;4.40;;;;;;;22.01;42.19;101824.31;5020651;28;20033;-48
2023/06/16 04:57:34;;;;;;;11.02;4.68;;;;;;;22.02;41.89;101826.00;5019954;28;20034;-51
2023/06/16 05:00:03;;;;;;;15.25;5.32;;;;;;;22.01;42.16;101825.16;5020640;28;20399;-50
2023/06/16 05:02:28;;;;;;;9.38;4.70;;;;;;;22.00;42.01;101823.44;5020864;28;20068;-49
2023/06/16 05:04:55;;;;;;;9.63;5.35;;;;;;;22.00;41.88;101823.44;5020872;28;20029;-51
2023/06/16 05:07:21;;;;;;;11.75;4.70;;;;;;;22.01;42.40;101830.56;5020599;28;20033;-48
2023/06/16 05:09:46;;;;;;;11.18;5.13;;;;;;;22.00;42.51;101826.13;5020193;28;20397;-50
2023/06/16 05:12:11;;;;;;;13.15;5.05;;;;;;;22.00;42.40;101825.28;5020801;28;20061;-50
2023/06/16 05:14:37;;;;;;;8.23;5.18;;;;;;;22.01;41.72;101827.03;5019271;28;20059;-50
2023/06/16 05:17:02;;;;;;;12.15;5.07;;;;;;;22.00;42.16;101828.00;5020445;28;20030;-51
2023/06/16 05:19:29;;;;;;;7.03;4.95;;;;;;;21.99;42.36;101824.44;5020866;28;20041;-50
2023/06/16 05:21:55;;;;;;;7.00;4.50;;;;;;;22.01;42.53;101835.16;5021710;28;20038;-51
2023/06/16 05:24:20;;;;;;;6.70;4.75;;;;;;;22.01;42.42;101829.72;5019897;28;20495;-50
2023/06/16 05:26:45;;;;;;;11.90;5.28;;;;;;;22.02;42.63;101832.25;5019458;28;20043;-50
2023/06/16 05:29:11;;;;;;;11.55;5.55;;;;;;;22.03;42.58;101827.72;5019818;28;20064;-50
2023/06/16 05:31:36;;;;;;;9.95;5.45;;;;;;;22.04;42.37;101834.84;5020213;28;20034;-50
2023/06/16 05:34:02;;;;;;;13.30;5.90;;;;;;;22.04;42.30;101829.41;5018759;28;20034;-51
2023/06/16 05:36:29;;;;;;;14.07;5.75;;;;;;;22.04;42.68;101835.69;5019875;28;20032;-49
2023/06/16 05:38:55;;;;;;;10.75;5.53;;;;;;;22.05;42.68;101831.13;5020581;28;20486;-51
2023/06/16 05:41:23;;;;;;;20.70;5.40;;;;;;;22.05;42.48;101833.84;5020127;28;20034;-49
2023/06/16 05:43:51;;;;;;;12.95;5.80;;;;;;;22.06;42.78;101843.69;5020292;28;20034;-49
2023/06/16 05:46:16;;;;;;;9.65;5.18;;;;;;;22.06;42.49;101838.25;5020407;28;20129;-50
2023/06/16 05:48:41;;;;;;;17.10;5.78;;;;;;;22.06;42.90;101843.69;5018512;28;20117;-50
2023/06/16 05:51:07;;;;;;;12.85;5.05;;;;;;;22.06;42.53;101833.66;5019045;28;20026;-49
2023/06/16 05:53:32;;;;;;;9.07;5.07;;;;;;;22.07;42.53;101845.41;5019257;28;20041;-48
2023/06/16 05:55:57;;;;;;;8.95;5.20;;;;;;;22.07;42.47;101845.41;5020217;28;20034;-50
2023/06/16 05:58:23;;;;;;;14.98;5.00;;;;;;;22.09;42.53;101842.53;5021418;28;20033;-50
2023/06/16 06:00:48;;;;;;;7.72;5.40;;;;;;;22.07;43.03;101845.41;5018982;28;20749;-50
2023/06/16 06:03:14;;;;;;;9.18;4.85;;;;;;;22.08;42.98;101846.25;5018657;28;20398;-50
2023/06/16 06:05:39;;;;;;;9.10;4.93;;;;;;;22.08;42.97;101843.53;5018760;28;20037;-51
2023/06/16 06:08:05;;;;;;;7.18;4.88;;;;;;;22.09;42.76;101843.38;5015662;28;20053;-49
2023/06/16 06:10:30;;;;;;;5.63;4.95;;;;;;;22.09;43.24;101846.09;5016154;28;20376;-51
2023/06/16 06:12:55;;;;;;;12.23;5.28;;;;;;;22.10;42.83;101847.78;5020231;28;20110;-50
2023/06/16 06:15:21;;;;;;;8.30;5.22;;;;;;;22.09;42.91;101848.81;5021940;28;20087;-51
2023/06/16 06:17:46;;;;;;;8.57;5.15;;;;;;;22.09;43.13;101848.81;5020858;28;20030;-50
2023/06/16 06:20:11;;;;;;;7.82;4.65;;;;;;;22.10;43.08;101857.78;5021286;28;20248;-50
2023/06/16 06:22:37;;;;;;;7.53;4.78;;;;;;;22.10;43.02;101861.34;5022146;28;20022;-50
2023/06/16 06:25:04;;;;;;;10.00;5.60;;;;;;;22.11;43.50;101865.78;5019573;28;20030;-48
2023/06/16 06:27:30;;;;;;;9.15;5.00;;;;;;;22.10;43.19;101861.34;5017678;28;20032;-50
2023/06/16 06:29:55;;;;;;;15.50;4.72;;;;;;;22.10;43.56;101861.34;5021301;28;20120;-49
2023/06/16 06:32:21;;;;;;;7.40;5.25;;;;;;;22.10;43.62;101866.78;5022687;28;20025;-50
2023/06/16 06:34:46;;;;;;;8.68;4.88;;;;;;;22.12;43.26;101872.91;5018588;28;20377;-51
2023/06/16 06:37:16;;;;;;;10.80;5.20;;;;;;;22.12;43.49;101870.19;5019095;28;20032;-51
2023/06/16 06:39:42;;;;;;;11.52;5.13;;;;;;;22.12;43.16;101870.19;5021420;28;20484;-51
2023/06/16 06:42:07;;;;;;;11.45;5.18;;;;;;;22.13;43.14;101868.34;5020091;28;20113;-50
2023/06/16 06:44:33;;;;;;;5.72;4.85;;;;;;;22.13;43.46;101868.34;5023701;28;20053;-49
2023/06/16 06:46:58;;;;;;;7.40;5.03;;;;;;;22.14;43.55;101872.75;5016672;28;20112;-52
2023/06/16 06:49:24;;;;;;;8.25;5.28;;;;;;;22.14;43.28;101868.22;5021756;28;20037;-52
2023/06/16 06:51:50;;;;;;;8.15;5.20;;;;;;;22.13;43.61;101871.91;5022931;28;20033;-51
2023/06/16 06:54:16;;;;;;;9.98;4.45;;;;;;;22.14;43.22;101870.06;5021706;28;20044;-52
2023/06/16 06:56:41;;;;;;;5.70;4.72;;;;;;;22.15;43.71;101872.63;5020863;28;20472;-52
2023/06/16 06:59:06;;;;;;;6.78;4.82;;;;;;;22.15;43.65;101871.78;5020294;28;20041;-52
2023/06/16 07:01:32;;;;;;;6.47;4.88;;;;;;;22.16;43.33;101871.63;5018355;28;20116;-51
2023/06/16 07:03:57;;;;;;;9.20;4.82;;;;;;;22.15;43.54;101872.63;5023338;28;20036;-52
2023/06/16 07:06:22;;;;;;;5.45;4.45;;;;;;;22.17;43.16;101878.75;5023056;28;20037;-52
2023/06/16 07:08:48;;;;;;;7.25;4.55;;;;;;;22.18;43.52;101876.88;5023001;28;20116;-52
2023/06/16 07:11:13;;;;;;;5.53;4.15;;;;;;;22.18;43.41;101883.19;5021807;28;20056;-51
2023/06/16 07:13:38;;;;;;;5.55;3.80;;;;;;;22.20;42.79;101883.00;5022008;28;20498;-50
2023/06/16 07:16:04;;;;;;;6.78;4.35;;;;;;;22.20;43.01;101881.19;5021777;28;20457;-48
2023/06/16 07:18:29;;;;;;;6.22;4.38;;;;;;;22.21;43.30;101876.59;5023294;28;20080;-52
2023/06/16 07:20:55;;;;;;;6.20;3.55;;;;;;;22.22;42.89;101881.03;5022181;28;20033;-51
2023/06/16 07:23:20;;;;;;;6.70;4.35;;;;;;;22.22;43.03;101887.31;5021016;28;20061;-50
2023/06/16 07:25:46;;;;;;;6.85;3.90;;;;;;;22.22;42.76;101884.59;5021519;28;20534;-47
2023/06/16 07:28:12;;;;;;;8.20;4.30;;;;;;;22.22;42.71;101876.47;5023051;28;20046;-49
2023/06/16 07:30:37;;;;;;;5.72;4.05;;;;;;;22.22;42.61;101881.88;5022002;28;20029;-50
2023/06/16 07:33:02;;;;;;;4.57;4.10;;;;;;;22.24;42.58;101881.75;5022097;28;20091;-51
2023/06/16 07:35:28;;;;;;;4.85;3.95;;;;;;;22.23;43.10;101875.44;5024027;28;20500;-51
2023/06/16 07:37:53;;;;;;;6.03;3.85;;;;;;;22.24;42.64;101876.31;5022921;28;20030;-52
2023/06/16 07:40:19;;;;;;;5.65;3.58;;;;;;;22.28;43.10;101882.31;5022309;28;20026;-51
2023/06/16 07:42:45;;;;;;;4.25;3.25;;;;;;;22.27;42.99;101886.03;5022746;28;20032;-49
2023/06/16 07:45:11;;;;;;;5.10;3.63;;;;;;;22.29;42.60;101884.03;5024171;28;20038;-50
2023/06/16 07:47:37;;;;;;;6.43;4.00;;;;;;;22.29;42.73;101884.03;5022687;28;20387;-50
2023/06/16 07:50:03;;;;;;;9.48;3.70;;;;;;;22.30;42.61;101888.47;5024657;28;20117;-50
2023/06/16 07:52:29;;;;;;;4.75;3.80;;;;;;;22.30;42.57;101881.16;5021821;28;20459;-48
2023/06/16 07:54:55;;;;;;;5.28;3.88;;;;;;;22.29;42.51;101881.31;5021567;28;20104;-50
2023/06/16 07:57:20;;;;;;;4.35;3.67;;;;;;;22.30;42.61;101874.88;5020794;28;20125;-52
2023/06/16 07:59:46;;;;;;;5.38;3.80;;;;;;;22.30;42.65;101883.03;5019580;28;20105;-47
2023/06/16 08:02:11;;;;;;;5.35;3.60;;;;;;;22.31;42.87;101879.28;5020428;28;20060;-48
2023/06/16 08:04:36;;;;;;;3.42;2.92;;;;;;;22.31;42.54;101880.13;5022514;28;20115;-47
2023/06/16 08:07:02;;;;;;;5.35;3.40;;;;;;;22.32;42.64;101881.03;5022533;28;20044;-48
2023/06/16 08:09:27;;;;;;;3.50;3.20;;;;;;;22.32;42.49;101870.16;5021426;28;20057;-47
2023/06/16 08:11:53;;;;;;;5.20;3.88;;;;;;;22.33;42.66;101871.84;5021539;28;20037;-47
2023/06/16 08:14:18;;;;;;;6.95;3.40;;;;;;;22.33;42.43;101878.16;5021636;28;20040;-47
2023/06/16 08:16:43;;;;;;;3.83;3.20;;;;;;;22.33;42.50;101875.44;5020027;28;20064;-49
2023/06/16 08:19:09;;;;;;;3.55;3.25;;;;;;;22.33;42.65;101872.75;5019974;28;20041;-46
2023/06/16 08:21:35;;;;;;;5.70;3.90;;;;;;;22.34;42.76;101871.72;5020278;28;20034;-46
2023/06/16 08:24:05;;;;;;;3.63;3.30;;;;;;;22.35;42.38;101876.16;5019837;28;20036;-47
2023/06/16 08:26:30;;;;;;;5.05;3.45;;;;;;;22.36;42.50;101871.56;5020865;28;20034;-47
2023/06/16 08:28:55;;;;;;;3.17;2.88;;;;;;;22.35;42.60;101870.72;5020512;28;20043;-46
2023/06/16 08:31:21;;;;;;;3.45;3.15;;;;;;;22.36;42.47;101872.41;5019166;28;20029;-47
2023/06/16 08:33:46;;;;;;;4.35;3.20;;;;;;;22.36;42.44;101869.69;5020096;28;20040;-45
2023/06/16 08:36:12;;;;;;;4.63;3.35;;;;;;;22.37;42.86;101867.84;5018881;28;20033;-48
2023/06/16 08:38:38;;;;;;;3.60;3.20;;;;;;;22.37;42.32;101871.44;5016441;28;20461;-46
2023/06/16 08:41:10;;;;;;;4.07;3.13;;;;;;;22.37;42.75;101865.13;5018805;28;20077;-49
2023/06/16 08:43:38;;;;;;;3.58;3.28;;;;;;;22.38;42.27;101867.69;5022191;28;20035;-46
2023/06/16 08:46:08;;;;;;;3.47;2.97;;;;;;;22.39;42.80;101864.00;5020924;28;20030;-50
2023/06/16 08:48:35;;;;;;;3.60;3.30;;;;;;;22.40;42.15;101870.25;5021082;28;20025;-46
2023/06/16 08:51:02;;;;;;;3.28;2.83;;;;;;;22.39;42.82;101863.09;5021173;28;20037;-46
2023/06/16 08:53:31;;;;;;;3.55;3.25;;;;;;;22.40;42.39;101864.84;5019321;28;20373;-46
2023/06/16 08:55:58;;;;;;;3.65;3.17;;;;;;;22.39;42.69;101866.69;5020125;28;20037;-45
2023/06/16 08:58:27;;;;;;;4.20;3.10;;;;;;;22.40;42.58;101857.53;5020953;28;20424;-46
2023/06/16 09:00:52;;;;;;;3.13;2.90;;;;;;;22.41;42.73;101864.69;5020967;28;20030;-47
2023/06/16 09:03:19;;;;;;;4.88;3.10;;;;;;;22.41;42.50;101864.69;5020616;28;20076;-47
2023/06/16 09:05:46;;;;;;;3.10;2.80;;;;;;;22.41;42.78;101861.97;5020629;28;20057;-47
2023/06/16 09:08:11;;;;;;;4.05;3.22;;;;;;;22.42;42.57;101860.09;5018478;28;20040;-46
2023/06/16 09:10:37;;;;;;;3.65;2.88;;;;;;;22.42;42.86;101862.81;5021252;28;20384;-47
2023/06/16 09:13:02;;;;;;;3.42;3.13;;;;;;;22.42;42.49;101860.09;5023940;28;20025;-46
2023/06/16 09:15:28;;;;;;;4.32;3.75;;;;;;;22.41;42.20;101856.53;5020952;28;20029;-45
2023/06/16 09:17:56;;;;;;;3.38;3.08;;;;;;;22.43;42.38;101864.53;5021671;28;20032;-45
2023/06/16 09:20:23;;;;;;;4.40;3.17;;;;;;;22.43;42.18;101862.69;5019385;28;20065;-46
2023/06/16 09:23:04;;;;;;;2.78;2.58;;;;;;;22.45;42.58;101867.97;5019744;28;20479;-46
2023/06/16 09:25:33;;;;;;;;;;;;;;;22.52;42.24;101866.31;5021001;28;20021;-47
2023/06/16 09:28:04;;;;;;;3.28;2.97;;;;;;;22.47;42.28;101863.22;5014632;28;19913;-47
2023/06/16 09:30:30;;;;;;;3.08;2.78;;;;;;;22.47;42.63;101862.38;5017703;28;20483;-46
2023/06/16 09:32:57;;;;;;;3.50;2.67;;;;;;;22.47;42.15;101862.38;5018240;28;20030;-45
2023/06/16 09:35:28;;;;;;;3.97;3.03;;;;;;;22.46;42.54;101853.38;5020200;28;20113;-47
2023/06/16 09:37:56;;;;;;;3.60;2.92;;;;;;;22.47;42.57;101852.38;5021641;28;20120;-47
2023/06/16 09:40:26;;;;;;;3.45;2.75;;;;;;;22.46;42.28;101856.09;5021402;28;20021;-46
2023/06/16 09:42:51;;;;;;;4.13;2.80;;;;;;;22.47;42.30;101856.97;5020422;28;20414;-45
2023/06/16 09:45:19;;;;;;;3.53;2.90;;;;;;;22.47;42.45;101857.81;5019498;28;20173;-47
2023/06/16 09:47:47;;;;;;;2.78;2.58;;;;;;;22.48;42.21;101855.94;5020122;28;20108;-46
2023/06/16 09:50:18;;;;;;;3.97;2.90;;;;;;;22.48;42.36;101858.66;5022706;28;20490;-46
2023/06/16 09:52:46;;;;;;;3.35;2.60;;;;;;;22.49;42.80;101858.50;5024556;28;20061;-46
2023/06/16 09:55:13;;;;;;;2.75;2.55;;;;;;;22.49;42.78;101857.66;5027112;28;20045;-47
2023/06/16 09:57:40;;;;;;;3.33;3.03;;;;;;;22.49;42.86;101854.94;5023324;28;20024;-46
2023/06/16 10:00:15;;;;;;;3.47;3.17;;;;;;;22.49;42.80;101847.66;5024256;28;20472;-46
2023/06/16 10:02:48;;;;;;;4.47;3.00;;;;;;;22.50;42.45;101853.91;5020329;28;20053;-47
2023/06/16 10:05:17;;;;;;;2.55;2.35;;;;;;;22.51;42.39;101845.63;5023120;28;20071;-46
2023/06/16 10:07:46;;;;;;;3.25;2.63;;;;;;;22.50;42.79;101843.91;5024386;28;20037;-46
2023/06/16 10:10:12;;;;;;;3.30;2.90;;;;;;;22.50;42.23;101841.19;5024776;28;20076;-46
2023/06/16 10:12:46;;;;;;;3.92;2.80;;;;;;;22.51;42.67;101842.91;5023959;28;20065;-49
2023/06/16 10:15:17;;;;;;;3.53;2.75;;;;;;;22.51;42.29;101837.50;5020596;28;20095;-47
2023/06/16 10:17:45;;;;;;;3.15;2.85;;;;;;;22.52;42.29;101831.03;5023622;28;20026;-47
2023/06/16 10:20:13;;;;;;;3.38;2.65;;;;;;;22.53;42.30;101834.63;5024200;28;20422;-49
2023/06/16 10:22:39;;;;;;;3.40;2.75;;;;;;;22.53;42.42;101840.91;5022532;28;20077;-47
2023/06/16 10:25:05;;;;;;;2.97;2.67;;;;;;;22.53;42.16;101832.75;5022777;28;20053;-46
2023/06/16 10:27:31;;;;;;;2.80;2.60;;;;;;;22.54;42.36;101834.47;5023730;28;20535;-48
2023/06/16 10:30:03;;;;;;;3.53;2.60;;;;;;;22.53;42.79;101823.78;5022694;28;20044;-48
2023/06/16 10:32:28;;;;;;;3.13;2.83;;;;;;;22.55;42.21;101828.03;5025055;28;20516;-47
2023/06/16 10:34:56;;;;;;;4.25;3.10;;;;;;;22.55;42.66;101822.59;5021371;28;20029;-47
2023/06/16 10:37:25;;;;;;;2.70;2.50;;;;;;;22.56;42.21;101834.31;5020746;28;20486;-47
2023/06/16 10:39:57;;;;;;;3.63;2.67;;;;;;;22.56;42.85;101818.91;5024169;28;20035;-46
2023/06/16 10:42:22;;;;;;;;;;;;;;;22.65;42.61;101822.53;5022892;28;20122;-47
2023/06/16 10:44:49;;;;;;;2.65;2.25;;;;;;;22.59;42.96;101825.88;5022669;28;19913;-48
2023/06/16 10:47:25;;;;;;;2.65;2.45;;;;;;;22.59;42.79;101818.56;5025467;28;20022;-47
2023/06/16 10:50:01;;;;;;;3.25;2.58;;;;;;;22.59;42.78;101815.00;5021175;28;20457;-46
2023/06/16 10:52:31;;;;;;;2.65;2.45;;;;;;;22.59;42.47;101813.13;5023664;28;20026;-46
2023/06/16 10:54:58;;;;;;;2.72;2.45;;;;;;;22.60;42.35;101809.44;5024024;28;20088;-48
2023/06/16 10:57:25;;;;;;;3.15;2.85;;;;;;;22.61;42.45;101807.56;5021531;28;20109;-47
2023/06/16 11:00:11;;;;;;;3.42;2.40;;;;;;;22.61;42.62;101811.13;5022132;28;20022;-46
2023/06/16 11:02:47;;;;;;;3.20;2.35;;;;;;;22.61;42.92;101808.41;5021599;28;20104;-47
2023/06/16 11:05:13;;;;;;;2.65;2.45;;;;;;;22.62;42.39;101812.84;5021412;28;20065;-48
2023/06/16 11:08:11;;;;;;;2.88;2.45;;;;;;;22.62;42.50;101807.41;5021855;28;20030;-47
2023/06/16 11:10:50;;;;;;;3.47;2.70;;;;;;;22.65;42.69;101811.66;5020530;28;20473;-48
2023/06/16 11:13:18;;;;;;;2.95;2.70;;;;;;;22.64;42.53;101808.13;5021479;28;20034;-46
2023/06/16 11:15:44;;;;;;;2.33;2.15;;;;;;;22.65;42.55;101806.25;5020067;28;20060;-46
2023/06/16 11:18:10;;;;;;;2.85;2.55;;;;;;;22.65;42.76;101800.81;5020926;28;20038;-46
2023/06/16 11:20:36;;;;;;;4.10;2.72;;;;;;;22.66;42.40;101799.81;5022296;28;20030;-47
2023/06/16 11:23:03;;;;;;;2.63;2.42;;;;;;;22.67;42.93;101797.94;5021429;28;20563;-47